Time;durP1;ratioP1;P1;durP2;ratioP2;P2;SDS_P1;SDS_P2;PMS_P1;PMS_P2;Temp;Humidity;BMP_temperature;BMP_pressure;BME280_temperature;BME280_humidity;BME280_pressure;Samples;Min_cycle;Max_cycle;Signal;HPM_P1;HPM_P2
2023/05/15 00:00:00;;;;;;;5.50;5.00;;;18.60;57.90;;;21.31;41.98;101267.38;5056260;28;20194;-68
2023/05/15 00:02:28;;;;;;;5.20;4.73;;;18.60;57.90;;;21.32;41.97;101262.84;5056107;28;20269;-67
2023/05/15 00:04:55;;;;;;;5.50;5.00;;;18.60;57.80;;;21.32;41.40;101263.63;5035784;28;20219;-67
2023/05/15 00:07:22;;;;;;;6.57;6.03;;;18.60;57.90;;;21.34;41.34;101260.75;5036100;28;20226;-66
2023/05/15 00:09:49;;;;;;;5.47;4.97;;;18.60;57.80;;;21.32;41.31;101258.28;5035873;28;20187;-67
2023/05/15 00:12:16;;;;;;;6.47;5.80;;;18.70;57.90;;;21.33;41.58;101259.94;5035863;28;20245;-66
2023/05/15 00:14:43;;;;;;;5.73;5.23;;;18.60;57.50;;;21.33;41.21;101254.56;5035353;28;20245;-67
2023/05/15 00:17:11;;;;;;;5.77;5.27;;;18.60;57.60;;;21.32;41.32;101258.28;5036368;28;20194;-67
2023/05/15 00:19:38;;;;;;;6.10;5.60;;;18.60;57.70;;;21.31;41.30;101251.31;5035682;28;20194;-67
2023/05/15 00:22:05;;;;;;;5.63;4.70;;;18.60;57.70;;;21.30;41.21;101248.88;5035174;28;20191;-68
2023/05/15 00:24:33;;;;;;;6.00;5.50;;;18.60;57.80;;;21.29;41.83;101247.22;5035418;28;20215;-66
2023/05/15 00:27:01;;;;;;;5.40;5.00;;;18.60;58.00;;;21.28;41.83;101245.59;5049593;28;20539;-66
2023/05/15 00:29:28;;;;;;;12.07;5.80;;;18.60;58.00;;;21.25;41.29;101246.88;5052242;28;20186;-66
2023/05/15 00:31:55;;;;;;;6.20;5.70;;;18.60;57.90;;;21.22;41.87;101244.69;5035612;28;20694;-66
2023/05/15 00:34:24;;;;;;;9.13;5.93;;;18.60;57.90;;;21.20;41.13;101244.09;5034886;28;20217;-65
2023/05/15 00:36:51;;;;;;;6.33;5.83;;;18.50;58.00;;;21.13;41.32;101246.06;5035358;28;20190;-66
2023/05/15 00:39:18;;;;;;;5.30;4.83;;;18.40;58.60;;;21.07;41.85;101233.59;5052410;28;20205;-67
2023/05/15 00:41:48;;;;;;;5.63;5.20;;;18.40;58.30;;;21.03;42.46;101237.75;5055021;28;20213;-67
2023/05/15 00:44:18;;;;;;;5.97;5.40;;;18.40;59.40;;;21.00;42.61;101242.72;5053707;28;20721;-66
2023/05/15 00:46:47;;;;;;;5.97;5.47;;;18.30;58.80;;;20.98;42.25;101234.94;5055073;28;20181;-66
2023/05/15 00:49:17;;;;;;;6.07;5.40;;;18.30;58.90;;;20.98;42.82;101229.59;5055904;28;20197;-65
2023/05/15 00:51:45;;;;;;;6.00;5.37;;;18.30;59.10;;;20.97;42.58;101227.16;5056902;28;20214;-65
2023/05/15 00:54:12;;;;;;;6.33;5.67;;;18.30;59.10;;;20.97;42.26;101227.94;5055472;28;20210;-66
2023/05/15 00:56:42;;;;;;;6.10;4.80;;;18.30;59.10;;;20.96;42.48;101226.34;5048857;28;20191;-67
2023/05/15 00:59:10;;;;;;;6.00;5.40;;;18.30;59.10;;;20.96;42.29;101231.69;5035127;28;20202;-67
2023/05/15 01:01:36;;;;;;;5.80;5.30;;;18.30;59.10;;;20.93;42.69;101226.78;5033532;28;20248;-66
2023/05/15 01:04:04;;;;;;;6.00;5.50;;;18.30;59.40;;;20.93;42.99;101224.13;5047284;28;20218;-66
2023/05/15 01:06:31;;;;;;;6.33;5.83;;;18.30;60.00;;;20.94;42.41;101223.09;5042820;28;20213;-66
2023/05/15 01:09:02;;;;;;;5.93;5.37;;;18.30;59.30;;;20.93;42.80;101229.47;5034659;28;20248;-66
2023/05/15 01:11:35;;;;;;;5.90;5.40;;;18.30;59.40;;;20.91;42.93;101223.53;5034783;28;20264;-66
2023/05/15 01:14:04;;;;;;;6.93;6.43;;;18.20;59.40;;;20.88;42.62;101224.81;5049811;28;20309;-67
2023/05/15 01:16:31;;;;;;;6.33;5.83;;;18.20;59.50;;;20.82;42.48;101214.22;5037803;28;20187;-67
2023/05/15 01:18:58;;;;;;;6.77;6.27;;;18.10;59.40;;;20.74;42.54;101222.56;5034676;28;20194;-67
2023/05/15 01:22:23;;;;;;;5.93;5.43;;;18.10;59.60;;;20.55;43.33;101218.31;5034738;28;20194;-67
2023/05/15 01:25:36;;;;;;;6.03;5.53;;;18.00;60.20;;;20.46;43.62;101223.19;5033626;28;20312;-67
2023/05/15 01:28:12;;;;;;;6.13;5.63;;;17.90;60.50;;;20.46;44.07;101217.00;5039593;28;20190;-67
2023/05/15 01:30:43;;;;;;;5.90;5.40;;;17.90;60.80;;;20.49;43.90;101219.25;5054159;28;20646;-67
2023/05/15 01:33:19;;;;;;;7.83;5.60;;;17.90;61.00;;;20.48;44.06;101222.94;5053366;28;20694;-67
2023/05/15 01:35:57;;;;;;;6.13;5.63;;;17.80;61.10;;;20.48;44.16;101222.94;5044624;28;20228;-67
2023/05/15 01:38:33;;;;;;;7.73;6.93;;;17.90;61.20;;;20.48;43.97;101225.63;5054451;28;20182;-67
2023/05/15 01:41:09;;;;;;;6.77;6.10;;;17.80;61.10;;;20.41;43.31;101217.69;5054233;28;20205;-67
2023/05/15 01:43:44;;;;;;;7.33;6.63;;;17.70;60.70;;;20.33;43.55;101217.19;5054011;28;20193;-67
2023/05/15 01:46:15;;;;;;;6.07;5.67;;;17.70;60.50;;;20.28;44.01;101219.75;5053240;28;20251;-67
2023/05/15 01:48:44;;;;;;;7.93;7.20;;;17.60;61.10;;;20.26;44.27;101217.28;5054326;28;20239;-67
2023/05/15 01:51:15;;;;;;;7.07;6.33;;;17.60;61.70;;;20.25;44.37;101216.47;5052702;28;20244;-67
2023/05/15 01:53:44;;;;;;;6.63;6.13;;;17.60;62.20;;;20.29;44.57;101210.66;5033579;28;20241;-66
2023/05/15 01:56:14;;;;;;;7.23;6.53;;;17.60;62.30;;;20.31;43.98;101209.41;5034058;28;20547;-67
2023/05/15 01:58:43;;;;;;;7.37;6.67;;;17.60;62.10;;;20.32;44.44;101211.03;5034128;28;20537;-66
2023/05/15 02:01:12;;;;;;;6.90;6.20;;;17.60;62.00;;;20.31;44.64;101211.25;5034155;28;20201;-65
2023/05/15 02:03:41;;;;;;;6.13;5.53;;;17.60;62.20;;;20.33;44.35;101209.16;5044068;28;20190;-68
2023/05/15 02:06:08;;;;;;;6.90;6.30;;;17.60;62.40;;;20.35;44.72;101207.09;5053844;28;20190;-67
2023/05/15 02:08:36;;;;;;;6.70;6.20;;;17.60;62.50;;;20.35;44.58;101209.78;5053440;28;20197;-67
2023/05/15 02:11:04;;;;;;;6.87;6.20;;;17.60;62.30;;;20.33;44.80;101209.97;5053592;28;20581;-67
2023/05/15 02:13:33;;;;;;;6.50;6.00;;;17.60;62.30;;;20.33;44.34;101209.16;5052522;28;20206;-67
2023/05/15 02:16:02;;;;;;;9.23;7.80;;;17.60;62.20;;;20.32;44.57;101205.69;5053516;28;20605;-67
2023/05/15 02:18:29;;;;;;;7.00;6.30;;;17.70;62.10;;;20.31;44.66;101200.56;5053348;28;20213;-69
2023/05/15 02:20:56;;;;;;;7.27;6.67;;;17.60;62.30;;;20.27;44.19;101204.72;5053633;28;20205;-67
2023/05/15 02:23:22;;;;;;;7.33;6.73;;;17.50;62.30;;;20.20;44.76;101200.28;5052567;28;20654;-67
2023/05/15 02:26:25;;;;;;;8.80;8.00;;;17.50;62.60;;;20.07;44.57;101204.94;5053162;28;20611;-67
2023/05/15 02:29:07;;;;;;;8.03;7.10;;;17.50;62.80;;;20.02;44.74;101194.94;5053239;28;20197;-67
2023/05/15 02:31:47;;;;;;;7.13;6.43;;;17.40;62.80;;;19.98;45.18;101190.28;5037855;28;20198;-67
2023/05/15 02:34:25;;;;;;;8.73;6.27;;;17.30;63.40;;;19.98;45.28;101191.09;5033158;28;20206;-69
2023/05/15 02:36:59;;;;;;;7.53;6.83;;;17.30;63.70;;;20.00;45.22;101191.69;5033426;28;20171;-67
2023/05/15 02:39:28;;;;;;;7.23;6.10;;;17.30;63.70;;;20.04;45.27;101189.38;5037641;28;20197;-67
2023/05/15 02:41:58;;;;;;;7.13;6.43;;;17.40;63.90;;;20.07;45.59;101181.72;5052357;28;20296;-66
2023/05/15 02:44:26;;;;;;;6.03;5.53;;;17.40;63.80;;;20.08;45.60;101180.69;5052532;28;20212;-67
2023/05/15 02:46:56;;;;;;;8.57;7.87;;;17.40;63.70;;;20.10;45.22;101178.59;5052936;28;20525;-67
2023/05/15 02:49:23;;;;;;;8.70;7.97;;;17.50;63.30;;;20.06;44.57;101182.75;5053187;28;20240;-67
2023/05/15 02:51:50;;;;;;;8.10;7.30;;;17.40;63.10;;;19.98;44.85;101175.06;5051342;28;20209;-65
2023/05/15 02:54:18;;;;;;;8.53;7.90;;;17.40;62.90;;;19.91;44.90;101171.66;5032835;28;20237;-67
2023/05/15 02:56:45;;;;;;;9.47;7.40;;;17.30;63.20;;;19.84;45.11;101178.94;5032913;28;20194;-67
2023/05/15 02:59:17;;;;;;;10.13;7.43;;;17.20;63.50;;;19.79;45.41;101164.63;5032746;28;20598;-65
2023/05/15 03:01:45;;;;;;;9.07;8.17;;;17.10;63.80;;;19.77;45.76;101166.69;5033037;28;20350;-67
2023/05/15 03:04:14;;;;;;;9.60;8.70;;;17.10;63.90;;;19.75;45.46;101166.09;5046649;28;20301;-65
2023/05/15 03:06:41;;;;;;;8.83;7.93;;;17.00;63.90;;;19.72;45.68;101174.56;5052470;28;20193;-67
2023/05/15 03:09:08;;;;;;;8.80;8.03;;;17.00;64.10;;;19.69;45.08;101162.47;5052685;28;20194;-65
2023/05/15 03:11:35;;;;;;;9.07;8.27;;;17.00;64.00;;;19.66;45.54;101165.56;5052594;28;20190;-68
2023/05/15 03:14:02;;;;;;;9.57;8.60;;;16.90;64.00;;;19.61;45.37;101157.44;5052141;28;20213;-66
2023/05/15 03:16:29;;;;;;;9.60;8.63;;;16.90;63.90;;;19.55;45.23;101152.97;5052516;28;20197;-65
2023/05/15 03:18:56;;;;;;;9.47;8.07;;;16.80;63.90;;;19.52;45.22;101156.09;5043764;28;20202;-65
2023/05/15 03:21:24;;;;;;;8.80;8.07;;;16.80;64.10;;;19.46;45.56;101160.47;5032437;28;20277;-67
2023/05/15 03:23:51;;;;;;;9.70;8.77;;;16.70;64.40;;;19.42;45.56;101150.47;5032615;28;20529;-67
2023/05/15 03:26:18;;;;;;;9.63;8.77;;;16.70;64.90;;;19.38;45.98;101151.94;5035263;28;20267;-67
2023/05/15 03:28:44;;;;;;;10.47;9.47;;;16.60;65.50;;;19.35;46.38;101153.16;5052610;28;20198;-67
2023/05/15 03:31:13;;;;;;;13.80;9.40;;;16.60;66.10;;;19.32;46.91;101158.97;5052519;28;20196;-67
2023/05/15 03:33:40;;;;;;;12.47;10.13;;;16.60;66.90;;;19.30;47.16;101161.00;5048390;28;20225;-67
2023/05/15 03:36:07;;;;;;;11.37;10.27;;;16.50;67.80;;;19.31;47.24;101151.16;5052424;28;20195;-67
2023/05/15 03:38:35;;;;;;;9.47;8.57;;;16.50;68.20;;;19.32;47.92;101155.47;5052531;28;20550;-67
2023/05/15 03:41:02;;;;;;;10.40;9.13;;;16.50;68.30;;;19.35;48.19;101147.03;5052447;28;20206;-68
2023/05/15 03:43:29;;;;;;;11.17;9.90;;;16.60;68.70;;;19.42;48.03;101148.59;5038532;28;20667;-67
2023/05/15 03:45:57;;;;;;;9.43;8.40;;;16.70;68.80;;;19.47;47.83;101146.06;5032390;28;20215;-67
2023/05/15 03:48:24;;;;;;;9.40;8.50;;;16.70;68.10;;;19.53;47.70;101150.53;5032536;28;20566;-65
2023/05/15 03:50:51;;;;;;;10.37;9.43;;;16.80;67.90;;;19.55;47.44;101142.28;5032804;28;20683;-67
2023/05/15 03:53:18;;;;;;;9.03;8.23;;;16.80;67.70;;;19.56;47.70;101152.75;5032391;28;20264;-67
2023/05/15 03:55:47;;;;;;;9.83;8.93;;;16.90;67.60;;;19.58;47.68;101141.84;5032369;28;20214;-67
2023/05/15 03:58:14;;;;;;;11.20;10.10;;;16.90;67.60;;;19.59;47.76;101140.81;5035017;28;20248;-69
2023/05/15 04:00:41;;;;;;;9.50;8.60;;;16.90;67.80;;;19.57;47.87;101145.56;5035935;28;20197;-67
2023/05/15 04:03:08;;;;;;;10.60;9.70;;;16.90;68.00;;;19.55;48.11;101136.94;5040744;28;20198;-66
2023/05/15 04:05:35;;;;;;;10.10;9.20;;;16.90;68.20;;;19.55;48.33;101145.78;5055042;28;20209;-67
2023/05/15 04:08:02;;;;;;;11.97;10.53;;;16.90;68.60;;;19.58;48.50;101147.19;5055120;28;20193;-67
2023/05/15 04:10:30;;;;;;;14.27;12.23;;;16.90;68.90;;;19.62;48.39;101150.22;5055214;28;20255;-67
2023/05/15 04:12:59;;;;;;;14.67;13.20;;;16.90;69.20;;;19.60;48.25;101161.13;5054393;28;20275;-67
2023/05/15 04:15:27;;;;;;;15.83;13.37;;;16.80;69.20;;;19.55;48.23;101158.31;5054077;28;20317;-67
2023/05/15 04:17:54;;;;;;;14.33;12.93;;;16.80;69.50;;;19.49;48.51;101156.56;5055783;28;20251;-67
2023/05/15 04:20:23;;;;;;;15.63;14.03;;;16.80;69.80;;;19.43;48.63;101160.09;5055933;28;20682;-67
2023/05/15 04:22:52;;;;;;;19.77;16.20;;;16.70;69.90;;;19.38;48.96;101157.28;5055096;28;20194;-66
2023/05/15 04:25:19;;;;;;;18.17;16.40;;;16.70;71.40;;;19.32;49.40;101171.50;5044840;28;20207;-67
2023/05/15 04:27:46;;;;;;;19.70;17.60;;;16.60;71.80;;;19.26;49.55;101159.00;5035482;28;20186;-66
2023/05/15 04:30:15;;;;;;;19.87;17.90;;;16.50;72.30;;;19.23;50.26;101154.13;5035539;28;20191;-66
2023/05/15 04:32:42;;;;;;;27.50;19.00;;;16.50;72.50;;;19.19;50.46;101151.06;5035329;28;20223;-68
2023/05/15 04:35:11;;;;;;;22.77;19.63;;;16.40;73.30;;;19.15;50.37;101165.91;5043695;28;20214;-66
2023/05/15 04:37:40;;;;;;;21.70;19.27;;;16.40;73.20;;;19.09;50.48;101158.75;5055279;28;20548;-67
2023/05/15 04:40:08;;;;;;;21.87;19.53;;;16.30;73.50;;;19.07;50.85;101158.16;5055057;28;20202;-68
2023/05/15 04:42:36;;;;;;;22.97;18.33;;;16.30;74.20;;;19.03;50.92;101158.81;5055040;28;20288;-68
2023/05/15 04:45:08;;;;;;;21.70;19.47;;;16.20;74.30;;;18.98;51.01;101151.47;5046049;28;20280;-67
2023/05/15 04:47:36;;;;;;;22.27;19.80;;;16.20;74.70;;;18.95;51.30;101162.59;5033538;28;20198;-65
2023/05/15 04:50:05;;;;;;;21.10;18.93;;;16.20;75.30;;;18.91;51.54;101162.22;5034861;28;20197;-66
2023/05/15 04:52:32;;;;;;;20.50;18.27;;;16.10;75.20;;;18.89;51.50;101164.28;5034679;28;20222;-66
2023/05/15 04:54:59;;;;;;;26.90;22.60;;;16.10;75.20;;;18.85;51.53;101163.06;5041140;28;20214;-66
2023/05/15 04:57:26;;;;;;;25.10;21.47;;;16.00;76.00;;;18.84;51.91;101163.31;5054510;28;20197;-68
2023/05/15 04:59:53;;;;;;;25.87;23.03;;;16.00;76.20;;;18.87;52.26;101160.22;5054636;28;20190;-66
2023/05/15 05:02:22;;;;;;;26.30;23.20;;;16.00;77.30;;;18.87;52.38;101160.22;5054366;28;20220;-65
2023/05/15 05:04:50;;;;;;;27.20;24.40;;;16.00;76.90;;;18.87;52.44;101155.66;5048312;28;20280;-67
2023/05/15 05:07:17;;;;;;;27.53;24.77;;;16.00;77.70;;;18.91;52.90;101161.41;5034474;28;20194;-68
2023/05/15 05:09:44;;;;;;;25.63;23.13;;;16.10;78.30;;;18.95;52.97;101162.59;5034135;28;20252;-67
2023/05/15 05:12:11;;;;;;;27.47;24.77;;;16.10;78.30;;;19.00;53.02;101169.94;5049515;28;20212;-67
2023/05/15 05:14:40;;;;;;;28.60;25.60;;;16.10;78.10;;;19.02;52.82;101157.22;5049979;28;20279;-67
2023/05/15 05:17:08;;;;;;;32.80;28.60;;;16.10;78.20;;;19.05;53.14;101156.75;5034434;28;20235;-67
2023/05/15 05:19:34;;;;;;;31.07;27.50;;;16.10;78.30;;;19.07;53.26;101163.50;5043110;28;20588;-67
2023/05/15 05:22:04;;;;;;;28.37;25.47;;;16.20;78.60;;;19.10;53.12;101160.41;5054181;28;20194;-67
2023/05/15 05:24:31;;;;;;;31.50;26.03;;;16.20;78.60;;;19.12;53.07;101152.16;5052205;28;20248;-67
2023/05/15 05:26:59;;;;;;;27.83;25.03;;;16.20;78.40;;;19.18;53.25;101164.66;5053763;28;20217;-67
2023/05/15 05:29:26;;;;;;;27.80;24.87;;;16.30;78.70;;;19.20;53.22;101158.06;5052675;28;20653;-68
2023/05/15 05:31:53;;;;;;;24.63;22.17;;;16.30;78.80;;;19.26;53.54;101156.34;5054183;28;20197;-66
2023/05/15 05:34:20;;;;;;;25.90;23.23;;;16.40;78.90;;;19.33;53.50;101159.75;5052730;28;20222;-66
2023/05/15 05:36:47;;;;;;;25.20;22.73;;;16.40;78.60;;;19.44;53.28;101170.56;5053708;28;20194;-67
2023/05/15 05:39:16;;;;;;;24.33;21.80;;;16.50;78.50;;;19.60;53.25;101161.13;5053451;28;20198;-68
2023/05/15 05:41:43;;;;;;;24.60;22.23;;;16.70;78.30;;;19.76;52.81;101168.53;5053213;28;20208;-66
2023/05/15 05:44:10;;;;;;;23.53;21.03;;;16.80;77.90;;;19.92;52.80;101165.25;5052870;28;20213;-68
2023/05/15 05:46:37;;;;;;;28.13;25.13;;;17.00;77.60;;;20.06;51.93;101164.03;5046257;28;20253;-68
2023/05/15 05:49:04;;;;;;;26.13;23.40;;;17.10;77.30;;;20.22;51.77;101168.81;5033548;28;20535;-68
2023/05/15 05:51:33;;;;;;;27.93;25.17;;;17.20;77.60;;;20.35;51.17;101169.66;5033494;28;20565;-67
2023/05/15 05:54:00;;;;;;;24.03;21.67;;;17.40;76.40;;;20.42;51.44;101170.38;5032816;28;20249;-67
2023/05/15 05:56:28;;;;;;;23.17;20.93;;;17.40;76.00;;;20.51;51.03;101169.00;5042263;28;20206;-68
2023/05/15 05:58:55;;;;;;;25.57;23.07;;;17.50;75.60;;;20.60;50.68;101176.47;5040703;28;20187;-68
2023/05/15 06:01:23;;;;;;;24.87;22.10;;;17.60;75.20;;;20.69;50.76;101168.91;5045499;28;20200;-67
2023/05/15 06:03:50;;;;;;;25.17;22.67;;;17.70;74.90;;;20.80;49.95;101157.44;5049946;28;20218;-67
2023/05/15 06:06:18;;;;;;;23.43;21.03;;;17.80;74.70;;;20.89;50.28;101162.19;5050464;28;20201;-68
2023/05/15 06:08:45;;;;;;;29.30;26.20;;;17.90;74.40;;;20.97;49.61;101163.72;5040288;28;20217;-66
2023/05/15 06:11:12;;;;;;;29.67;26.47;;;18.00;74.20;;;21.04;49.30;101159.06;5051970;28;20197;-68
2023/05/15 06:13:40;;;;;;;26.30;23.73;;;18.00;74.00;;;21.05;49.42;101152.69;5052169;28;20234;-68
2023/05/15 06:16:26;;;;;;;24.43;21.93;;;18.10;74.30;;;21.03;49.00;101157.44;5044002;28;20206;-68
2023/05/15 06:18:58;;;;;;;22.90;20.67;;;18.10;73.30;;;21.03;49.22;101157.44;5035693;28;20194;-68
2023/05/15 06:21:30;;;;;;;24.20;21.80;;;18.10;73.20;;;21.06;49.10;101153.53;5053623;28;20224;-69
2023/05/15 06:23:58;;;;;;;29.03;22.83;;;18.10;73.30;;;21.08;49.25;101154.91;5048292;28;20202;-68
2023/05/15 06:26:28;;;;;;;25.47;22.37;;;18.20;73.10;;;21.12;49.21;101161.44;5041747;28;20209;-67
2023/05/15 06:28:57;;;;;;;24.70;21.20;;;18.20;73.20;;;21.17;49.08;101161.53;5052656;28;20208;-68
2023/05/15 06:31:24;;;;;;;23.80;21.47;;;18.20;73.40;;;21.26;48.83;101165.50;5054207;28;20646;-67
2023/05/15 06:33:52;;;;;;;23.83;21.63;;;18.30;73.40;;;21.32;48.91;101172.56;5050207;28;20210;-69
2023/05/15 06:36:59;;;;;;;23.87;21.57;;;18.30;73.10;;;21.31;48.69;101164.78;5040282;28;20191;-69
2023/05/15 06:39:35;;;;;;;23.30;21.07;;;18.30;72.80;;;21.33;48.51;101168.84;5023912;28;20198;-67
2023/05/15 06:42:02;;;;;;;23.97;21.60;;;18.40;73.10;;;21.39;48.45;101173.28;5043140;28;20229;-67
2023/05/15 06:44:31;;;;;;;23.37;21.23;;;18.40;73.00;;;21.47;48.63;101169.41;5032693;28;20301;-67
2023/05/15 06:46:58;;;;;;;23.90;21.60;;;18.50;73.20;;;21.57;48.35;101167.78;5050669;28;20190;-67
2023/05/15 06:49:26;;;;;;;24.83;22.43;;;18.50;73.00;;;21.66;48.36;101172.75;5051625;28;20198;-67
2023/05/15 06:51:54;;;;;;;23.77;21.67;;;18.50;72.90;;;21.70;48.52;101173.94;5046718;28;20260;-67
2023/05/15 06:54:20;;;;;;;22.83;20.57;;;18.60;72.60;;;21.74;47.89;101172.41;5040745;28;20218;-67
2023/05/15 06:56:47;;;;;;;24.87;22.40;;;18.70;72.50;;;21.77;47.94;101159.34;5034958;28;20516;-68
2023/05/15 06:59:14;;;;;;;24.57;22.07;;;18.70;72.20;;;21.80;48.36;101160.75;5047704;28;20245;-68
2023/05/15 07:01:43;;;;;;;25.23;22.93;;;18.80;72.30;;;21.84;47.74;101159.22;5042310;28;20197;-67
2023/05/15 07:04:10;;;;;;;23.17;21.07;;;18.80;71.90;;;21.88;47.96;101155.03;5040965;28;20678;-67
2023/05/15 07:06:39;;;;;;;22.73;20.47;;;18.80;71.80;;;21.93;47.89;101152.44;5042099;28;20197;-69
2023/05/15 07:09:06;;;;;;;22.07;19.53;;;18.90;71.70;;;21.99;47.52;101154.97;5039025;28;20198;-68
2023/05/15 07:11:36;;;;;;;22.87;20.57;;;18.90;71.60;;;22.04;47.61;101154.25;5049315;28;20198;-67
2023/05/15 07:14:03;;;;;;;24.37;22.07;;;19.00;71.40;;;22.10;47.28;101147.94;5041810;28;20229;-67
2023/05/15 07:16:30;;;;;;;25.30;22.90;;;19.10;71.20;;;22.13;47.23;101150.16;5066470;28;20237;-66
2023/05/15 07:18:59;;;;;;;22.87;20.73;;;19.10;70.80;;;22.20;47.21;101148.16;5050923;28;20512;-67
2023/05/15 07:21:26;;;;;;;21.37;19.37;;;19.10;70.60;;;22.23;46.85;101153.81;5051024;28;20222;-67
2023/05/15 07:23:53;;;;;;;22.67;20.53;;;19.20;70.60;;;22.30;46.61;101150.97;5052203;28;20194;-68
2023/05/15 07:26:20;;;;;;;22.20;19.97;;;19.30;70.50;;;22.38;46.76;101152.47;5051976;28;20666;-67
2023/05/15 07:29:00;;;;;;;21.07;18.93;;;19.30;70.50;;;22.48;46.78;101150.78;5052037;28;20256;-67
2023/05/15 07:31:27;;;;;;;21.70;19.70;;;19.40;70.30;;;22.55;46.34;101145.25;5052237;28;20190;-67
2023/05/15 07:33:54;;;;;;;21.57;19.40;;;19.50;70.00;;;22.59;45.99;101154.44;5055463;28;20220;-67
2023/05/15 07:36:22;;;;;;;24.93;22.23;;;19.60;69.70;;;22.61;45.83;101150.47;5055827;28;20194;-68
2023/05/15 07:38:49;;;;;;;22.87;20.67;;;19.60;69.10;;;22.60;45.62;101148.84;5055802;28;20499;-68
2023/05/15 07:41:16;;;;;;;20.83;18.80;;;19.60;68.80;;;22.64;45.80;101144.63;5055473;28;20206;-66
2023/05/15 07:43:43;;;;;;;19.03;17.20;;;19.70;68.70;;;22.67;45.53;101143.34;5054970;28;20186;-66
2023/05/15 07:46:10;;;;;;;19.90;17.90;;;19.70;68.20;;;22.74;45.44;101139.44;5055600;28;20209;-66
2023/05/15 07:48:37;;;;;;;19.83;17.83;;;19.70;68.20;;;22.86;45.14;101148.22;5054626;28;20194;-66
2023/05/15 07:51:04;;;;;;;21.77;19.57;;;19.80;67.90;;;22.94;44.75;101143.50;5055889;28;20194;-67
2023/05/15 07:53:32;;;;;;;21.30;19.10;;;19.90;67.30;;;23.15;44.42;101145.41;5055114;28;20224;-66
2023/05/15 07:55:59;;;;;;;20.30;18.27;;;20.00;67.50;;;23.75;44.15;101146.22;5055281;28;20216;-66
2023/05/15 07:58:27;;;;;;;21.77;19.57;;;20.10;67.90;;;24.64;42.92;101139.34;5055468;28;20251;-67
2023/05/15 08:00:54;;;;;;;23.00;19.87;;;20.40;68.00;;;25.72;41.22;101139.75;5040560;28;20663;-67
2023/05/15 08:03:21;;;;;;;18.87;16.97;;;20.90;66.90;;;26.73;39.54;101138.81;5035663;28;20191;-67
2023/05/15 08:05:49;;;;;;;18.77;16.77;;;21.40;65.60;;;27.39;37.22;101144.13;5035935;28;20389;-66
2023/05/15 08:08:16;;;;;;;19.53;17.33;;;22.00;62.70;;;27.98;36.41;101146.88;5035073;28;20558;-67
2023/05/15 08:10:44;;;;;;;18.37;16.67;;;22.50;61.20;;;28.72;35.32;101141.19;5035720;28;20187;-67
2023/05/15 08:13:11;;;;;;;19.67;17.67;;;23.10;59.70;;;29.46;33.69;101141.53;5035472;28;20198;-68
2023/05/15 08:15:38;;;;;;;18.43;16.70;;;23.60;58.10;;;30.14;32.54;101130.31;5035788;28;20305;-68
2023/05/15 08:18:08;;;;;;;17.20;15.60;;;24.20;56.50;;;30.90;31.97;101134.53;5035395;28;20667;-67
2023/05/15 08:20:36;;;;;;;18.33;16.63;;;24.70;55.30;;;31.51;29.74;101126.81;5036099;28;20175;-67
2023/05/15 08:23:03;;;;;;;17.50;15.67;;;25.30;53.20;;;31.98;29.33;101126.31;5035293;28;20195;-68
2023/05/15 08:25:30;;;;;;;16.83;15.13;;;25.80;51.90;;;32.45;28.26;101126.84;5035489;28;20647;-66
2023/05/15 08:27:58;;;;;;;15.93;14.53;;;26.20;50.70;;;32.95;27.93;101125.53;5038233;28;20197;-67
2023/05/15 08:30:25;;;;;;;15.83;14.23;;;26.60;49.20;;;33.53;27.01;101121.72;5054776;28;20222;-68
2023/05/15 08:32:52;;;;;;;15.00;13.50;;;27.10;48.20;;;34.12;26.24;101114.75;5054753;28;20200;-68
2023/05/15 08:35:19;;;;;;;14.70;13.33;;;27.50;46.70;;;34.61;25.89;101115.00;5053956;28;20236;-67
2023/05/15 08:37:46;;;;;;;13.30;12.00;;;27.90;45.70;;;35.15;25.53;101118.88;5054452;28;20186;-68
2023/05/15 08:40:14;;;;;;;13.87;12.57;;;28.30;44.70;;;35.64;24.41;101121.97;5054883;28;20618;-68
2023/05/15 08:42:44;;;;;;;14.93;13.57;;;28.70;43.00;;;35.88;22.58;101114.72;5054555;28;20386;-68
2023/05/15 08:45:13;;;;;;;12.63;11.43;;;28.90;40.00;;;36.00;23.07;101120.28;5054792;28;20213;-67
2023/05/15 08:47:42;;;;;;;12.03;11.03;;;29.20;39.50;;;36.24;23.23;101121.50;5054620;28;20186;-68
2023/05/15 08:50:12;;;;;;;13.30;12.00;;;29.50;39.50;;;36.46;23.17;101112.94;5054875;28;20193;-68
2023/05/15 08:52:41;;;;;;;11.90;10.90;;;29.70;39.00;;;36.84;21.53;101107.16;5054819;28;20194;-67
2023/05/15 08:55:10;;;;;;;11.67;10.67;;;29.90;37.50;;;37.35;21.86;101106.50;5054647;28;20232;-67
2023/05/15 08:57:38;;;;;;;10.97;9.97;;;30.30;37.90;;;37.62;20.49;101099.50;5036863;28;20244;-67
2023/05/15 09:00:08;;;;;;;13.40;11.95;;;30.50;35.70;;;37.63;20.36;101090.13;5035343;28;20198;-67
2023/05/15 09:02:38;;;;;;;10.43;9.52;;;30.50;34.20;;;37.51;20.44;101106.63;5035644;28;20655;-68
2023/05/15 09:05:07;;;;;;;12.13;10.98;;;30.60;34.90;;;37.61;20.64;101103.41;5054328;28;20226;-68
2023/05/15 09:07:37;;;;;;;11.70;10.77;;;30.80;34.80;;;37.70;20.45;101090.31;5053363;28;20255;-68
2023/05/15 09:10:07;;;;;;;10.93;10.05;;;30.90;34.40;;;37.82;20.14;101093.81;5055484;28;20190;-68
2023/05/15 09:12:40;;;;;;;12.15;11.18;;;31.00;33.60;;;37.81;19.84;101085.91;5054591;28;20204;-68
2023/05/15 09:15:09;;;;;;;10.90;9.95;;;30.90;33.50;;;37.83;20.14;101089.16;5054101;28;20756;-69
2023/05/15 09:17:38;;;;;;;11.13;9.95;;;31.10;34.00;;;38.08;20.15;101096.16;5054854;28;20197;-68
2023/05/15 09:20:22;;;;;;;10.40;9.43;;;31.20;33.10;;;38.06;19.57;101092.94;5054086;28;20198;-67
2023/05/15 09:22:49;;;;;;;10.20;8.57;;;31.30;32.80;;;38.00;19.67;101094.34;5054157;28;20182;-68
2023/05/15 09:25:33;;;;;;;9.45;8.75;;;31.30;32.50;;;38.02;19.60;101091.25;5054643;28;20209;-67
2023/05/15 09:28:00;;;;;;;10.38;9.48;;;31.40;33.00;;;38.15;19.92;101090.88;5054231;28;20232;-68
2023/05/15 09:30:29;;;;;;;11.75;10.75;;;31.50;32.90;;;38.43;19.53;101088.91;5052950;28;20190;-69
2023/05/15 09:33:02;;;;;;;9.88;9.13;;;31.60;32.60;;;38.93;19.24;101087.41;5053932;28;20193;-68
2023/05/15 09:35:34;;;;;;;10.70;9.65;;;31.80;32.70;;;39.21;18.79;101093.63;5054097;28;20217;-68
2023/05/15 09:38:02;;;;;;;11.38;10.43;;;32.00;32.10;;;39.18;18.67;101094.31;5053943;28;20194;-67
2023/05/15 09:40:31;;;;;;;11.00;10.00;;;32.00;31.50;;;39.09;18.74;101090.94;5054218;28;20198;-68
2023/05/15 09:42:58;;;;;;;14.48;13.18;;;32.10;31.50;;;38.68;18.74;101091.50;5053714;28;20205;-67
2023/05/15 09:45:28;;;;;;;11.98;10.98;;;32.00;31.30;;;38.13;19.48;101082.16;5053864;28;20693;-69
2023/05/15 09:48:03;;;;;;;11.05;10.07;;;31.90;31.70;;;37.97;19.95;101077.78;5052213;28;20190;-67
2023/05/15 09:50:35;;;;;;;10.73;9.48;;;31.80;32.20;;;38.19;19.46;101072.50;5053817;28;20212;-68
2023/05/15 09:53:03;;;;;;;9.57;8.77;;;31.80;32.10;;;38.63;19.43;101078.78;5053092;28;20557;-68
2023/05/15 09:55:35;;;;;;;13.00;11.80;;;31.80;32.40;;;38.76;19.03;101076.75;5053058;28;20239;-68
2023/05/15 09:58:07;;;;;;;11.98;10.85;;;31.80;32.10;;;38.47;19.50;101081.53;5053738;28;20190;-68
2023/05/15 10:00:36;;;;;;;12.43;11.38;;;31.80;32.10;;;38.23;20.13;101081.63;5053496;28;20202;-68
2023/05/15 10:03:21;;;;;;;11.02;10.02;;;31.90;32.60;;;38.38;19.86;101078.16;5054018;28;20551;-67
2023/05/15 10:05:57;;;;;;;11.82;10.60;;;31.80;32.80;;;38.82;19.45;101076.13;5054035;28;20213;-68
2023/05/15 10:08:29;;;;;;;12.40;11.43;;;32.00;32.80;;;39.38;19.20;101065.66;5053428;28;20662;-68
2023/05/15 10:11:02;;;;;;;12.95;11.00;;;32.20;32.80;;;40.00;18.44;101074.84;5052281;28;20519;-68
2023/05/15 10:13:33;;;;;;;15.52;14.15;;;32.50;32.50;;;40.32;18.00;101073.53;5053016;28;20589;-69